sensor_id;sensor_type;location;lat;lon;timestamp;pressure;altitude;pressure_sealevel;temperature;humidity
31044;BME280;17710;52.520;13.352;2022-12-20T00:01:56;101505.16;;;8.47;61.69
31044;BME280;17710;52.520;13.352;2022-12-20T00:04:22;101515.88;;;8.36;62.02
31044;BME280;17710;52.520;13.352;2022-12-20T00:06:49;101509.59;;;8.47;61.41
31044;BME280;17710;52.520;13.352;2022-12-20T00:09:15;101520.91;;;8.52;61.72
31044;BME280;17710;52.520;13.352;2022-12-20T00:11:42;101517.41;;;8.51;61.74
31044;BME280;17710;52.520;13.352;2022-12-20T00:14:09;101512.22;;;8.47;61.39
31044;BME280;17710;52.520;13.352;2022-12-20T00:16:37;101504.16;;;8.57;61.46
31044;BME280;17710;52.520;13.352;2022-12-20T00:19:05;101502.22;;;8.67;60.78
31044;BME280;17710;52.520;13.352;2022-12-20T00:21:32;101499.53;;;8.71;60.72
31044;BME280;17710;52.520;13.352;2022-12-20T00:24:00;101486.41;;;8.68;60.32
31044;BME280;17710;52.520;13.352;2022-12-20T00:26:29;101499.47;;;8.76;60.40
31044;BME280;17710;52.520;13.352;2022-12-20T00:28:56;101498.72;;;8.66;60.54
31044;BME280;17710;52.520;13.352;2022-12-20T00:31:24;101497.63;;;8.79;60.49
31044;BME280;17710;52.520;13.352;2022-12-20T00:33:54;101487.94;;;8.82;60.11
31044;BME280;17710;52.520;13.352;2022-12-20T00:36:22;101476.63;;;8.75;59.93
31044;BME280;17710;52.520;13.352;2022-12-20T00:38:50;101476.84;;;8.63;60.64
31044;BME280;17710;52.520;13.352;2022-12-20T00:41:19;101481.03;;;8.73;60.34
31044;BME280;17710;52.520;13.352;2022-12-20T00:43:46;101480.69;;;8.94;59.56
31044;BME280;17710;52.520;13.352;2022-12-20T00:46:16;101485.31;;;8.80;59.78
31044;BME280;17710;52.520;13.352;2022-12-20T00:48:44;101480.78;;;8.90;59.81
31044;BME280;17710;52.520;13.352;2022-12-20T00:51:13;101489.03;;;8.68;60.26
31044;BME280;17710;52.520;13.352;2022-12-20T00:53:40;101492.53;;;8.70;60.24
31044;BME280;17710;52.520;13.352;2022-12-20T00:56:07;101481.03;;;8.74;59.92
31044;BME280;17710;52.520;13.352;2022-12-20T00:58:36;101480.13;;;8.77;60.27
31044;BME280;17710;52.520;13.352;2022-12-20T01:01:05;101480.91;;;8.82;59.78
31044;BME280;17710;52.520;13.352;2022-12-20T01:03:32;101484.22;;;8.93;59.34
31044;BME280;17710;52.520;13.352;2022-12-20T01:06:09;101492.22;;;8.89;59.49
31044;BME280;17710;52.520;13.352;2022-12-20T01:08:36;101479.69;;;9.01;59.17
31044;BME280;17710;52.520;13.352;2022-12-20T01:11:05;101486.84;;;8.95;59.01
31044;BME280;17710;52.520;13.352;2022-12-20T01:13:33;101492.84;;;9.04;58.94
31044;BME280;17710;52.520;13.352;2022-12-20T01:16:03;101495.28;;;9.13;58.73
31044;BME280;17710;52.520;13.352;2022-12-20T01:18:30;101488.13;;;9.22;58.80
31044;BME280;17710;52.520;13.352;2022-12-20T01:21:00;101490.09;;;9.10;58.53
31044;BME280;17710;52.520;13.352;2022-12-20T01:23:26;101481.19;;;9.17;58.66
31044;BME280;17710;52.520;13.352;2022-12-20T01:25:56;101475.28;;;9.02;58.88
31044;BME280;17710;52.520;13.352;2022-12-20T01:28:23;101488.69;;;8.91;59.51
31044;BME280;17710;52.520;13.352;2022-12-20T01:30:49;101484.97;;;9.01;59.02
31044;BME280;17710;52.520;13.352;2022-12-20T01:33:15;101485.91;;;8.99;59.54
31044;BME280;17710;52.520;13.352;2022-12-20T01:35:42;101484.81;;;9.10;58.87
31044;BME280;17710;52.520;13.352;2022-12-20T01:38:08;101478.53;;;9.17;58.80
31044;BME280;17710;52.520;13.352;2022-12-20T01:40:37;101483.75;;;9.20;58.76
31044;BME280;17710;52.520;13.352;2022-12-20T01:43:09;101467.25;;;9.09;58.87
31044;BME280;17710;52.520;13.352;2022-12-20T01:45:37;101465.34;;;9.17;58.47
31044;BME280;17710;52.520;13.352;2022-12-20T01:48:04;101465.28;;;9.20;58.76
31044;BME280;17710;52.520;13.352;2022-12-20T01:50:31;101463.66;;;9.13;58.53
31044;BME280;17710;52.520;13.352;2022-12-20T01:52:58;101462.94;;;9.05;58.89
31044;BME280;17710;52.520;13.352;2022-12-20T01:55:27;101464.63;;;9.08;58.94
31044;BME280;17710;52.520;13.352;2022-12-20T01:57:57;101461.72;;;9.25;58.63
31044;BME280;17710;52.520;13.352;2022-12-20T02:00:27;101464.50;;;9.15;58.71
31044;BME280;17710;52.520;13.352;2022-12-20T02:02:54;101464.47;;;9.18;58.85
31044;BME280;17710;52.520;13.352;2022-12-20T02:05:23;101467.00;;;9.25;58.43
31044;BME280;17710;52.520;13.352;2022-12-20T02:07:52;101458.47;;;9.09;58.78
31044;BME280;17710;52.520;13.352;2022-12-20T02:10:22;101463.63;;;9.15;59.08
31044;BME280;17710;52.520;13.352;2022-12-20T02:12:57;101455.94;;;9.04;58.77
31044;BME280;17710;52.520;13.352;2022-12-20T02:15:35;101458.81;;;8.89;59.34
31044;BME280;17710;52.520;13.352;2022-12-20T02:18:16;101465.66;;;9.01;59.28
31044;BME280;17710;52.520;13.352;2022-12-20T02:21:13;101468.25;;;9.04;59.17
31044;BME280;17710;52.520;13.352;2022-12-20T02:24:04;101463.75;;;9.07;58.84
31044;BME280;17710;52.520;13.352;2022-12-20T02:26:59;101454.94;;;9.10;58.83
31044;BME280;17710;52.520;13.352;2022-12-20T02:29:35;101462.75;;;9.14;58.77
31044;BME280;17710;52.520;13.352;2022-12-20T02:32:08;101460.25;;;9.08;58.95
31044;BME280;17710;52.520;13.352;2022-12-20T02:34:39;101459.75;;;9.34;58.46
31044;BME280;17710;52.520;13.352;2022-12-20T02:37:06;101457.69;;;9.05;58.46
31044;BME280;17710;52.520;13.352;2022-12-20T02:39:33;101456.59;;;9.15;58.76
31044;BME280;17710;52.520;13.352;2022-12-20T02:42:03;101457.34;;;9.22;58.39
31044;BME280;17710;52.520;13.352;2022-12-20T02:44:32;101448.03;;;9.04;58.80
31044;BME280;17710;52.520;13.352;2022-12-20T02:47:21;101442.91;;;8.95;59.41
31044;BME280;17710;52.520;13.352;2022-12-20T02:49:50;101433.34;;;8.90;58.94
31044;BME280;17710;52.520;13.352;2022-12-20T02:52:20;101426.94;;;9.04;58.79
31044;BME280;17710;52.520;13.352;2022-12-20T02:54:49;101427.91;;;8.99;58.93
31044;BME280;17710;52.520;13.352;2022-12-20T02:57:21;101421.88;;;8.92;59.08
31044;BME280;17710;52.520;13.352;2022-12-20T02:59:56;101421.59;;;9.07;58.77
31044;BME280;17710;52.520;13.352;2022-12-20T03:02:28;101414.19;;;9.26;58.38
31044;BME280;17710;52.520;13.352;2022-12-20T03:05:19;101403.50;;;9.34;58.07
31044;BME280;17710;52.520;13.352;2022-12-20T03:07:47;101396.31;;;9.42;57.59
31044;BME280;17710;52.520;13.352;2022-12-20T03:10:13;101399.72;;;9.47;57.81
31044;BME280;17710;52.520;13.352;2022-12-20T03:12:40;101393.19;;;9.65;57.47
31044;BME280;17710;52.520;13.352;2022-12-20T03:15:07;101401.66;;;9.79;56.77
31044;BME280;17710;52.520;13.352;2022-12-20T03:17:35;101398.50;;;9.63;56.93
31044;BME280;17710;52.520;13.352;2022-12-20T03:20:01;101382.13;;;9.46;57.50
31044;BME280;17710;52.520;13.352;2022-12-20T03:22:28;101386.34;;;9.56;57.36
31044;BME280;17710;52.520;13.352;2022-12-20T03:24:55;101392.88;;;9.38;57.99
31044;BME280;17710;52.520;13.352;2022-12-20T03:27:27;101389.81;;;9.58;57.14
31044;BME280;17710;52.520;13.352;2022-12-20T03:29:54;101398.47;;;9.65;57.12
31044;BME280;17710;52.520;13.352;2022-12-20T03:32:21;101410.88;;;9.59;57.46
31044;BME280;17710;52.520;13.352;2022-12-20T03:34:49;101415.13;;;9.67;57.30
31044;BME280;17710;52.520;13.352;2022-12-20T03:37:15;101403.25;;;9.46;57.50
31044;BME280;17710;52.520;13.352;2022-12-20T03:39:41;101416.88;;;9.68;57.20
31044;BME280;17710;52.520;13.352;2022-12-20T03:42:08;101405.44;;;9.67;57.34
31044;BME280;17710;52.520;13.352;2022-12-20T03:44:34;101408.22;;;9.61;57.23
31044;BME280;17710;52.520;13.352;2022-12-20T03:47:01;101422.16;;;9.66;57.23
31044;BME280;17710;52.520;13.352;2022-12-20T03:49:27;101418.47;;;9.75;57.16
31044;BME280;17710;52.520;13.352;2022-12-20T03:51:55;101416.72;;;9.75;57.04
31044;BME280;17710;52.520;13.352;2022-12-20T03:54:24;101408.84;;;9.72;57.10
31044;BME280;17710;52.520;13.352;2022-12-20T03:56:50;101400.28;;;9.63;56.87
31044;BME280;17710;52.520;13.352;2022-12-20T03:59:17;101389.28;;;9.41;57.71
31044;BME280;17710;52.520;13.352;2022-12-20T04:01:44;101391.94;;;9.39;57.83
31044;BME280;17710;52.520;13.352;2022-12-20T04:04:12;101403.44;;;9.37;57.94
31044;BME280;17710;52.520;13.352;2022-12-20T04:06:38;101410.88;;;9.59;57.46
31044;BME280;17710;52.520;13.352;2022-12-20T04:09:06;101418.38;;;9.38;57.74
31044;BME280;17710;52.520;13.352;2022-12-20T04:11:33;101412.97;;;9.44;57.69
31044;BME280;17710;52.520;13.352;2022-12-20T04:13:59;101406.06;;;9.38;57.56
31044;BME280;17710;52.520;13.352;2022-12-20T04:16:27;101411.97;;;9.51;57.78
31044;BME280;17710;52.520;13.352;2022-12-20T04:18:54;101405.84;;;9.47;57.78
31044;BME280;17710;52.520;13.352;2022-12-20T04:21:21;101398.91;;;9.43;57.73
31044;BME280;17710;52.520;13.352;2022-12-20T04:23:48;101399.03;;;9.37;57.80
31044;BME280;17710;52.520;13.352;2022-12-20T04:26:15;101386.94;;;9.26;58.59
31044;BME280;17710;52.520;13.352;2022-12-20T04:28:42;101382.41;;;9.34;57.93
31044;BME280;17710;52.520;13.352;2022-12-20T04:31:09;101384.25;;;9.30;57.97
31044;BME280;17710;52.520;13.352;2022-12-20T04:33:36;101394.03;;;9.24;58.42
31044;BME280;17710;52.520;13.352;2022-12-20T04:36:03;101391.28;;;9.30;58.14
31044;BME280;17710;52.520;13.352;2022-12-20T04:38:30;101392.19;;;9.27;58.56
31044;BME280;17710;52.520;13.352;2022-12-20T04:40:57;101396.56;;;9.28;58.58
31044;BME280;17710;52.520;13.352;2022-12-20T04:43:25;101390.66;;;9.17;58.49
31044;BME280;17710;52.520;13.352;2022-12-20T04:45:53;101386.13;;;9.24;58.34
31044;BME280;17710;52.520;13.352;2022-12-20T04:48:21;101389.41;;;9.35;57.94
31044;BME280;17710;52.520;13.352;2022-12-20T04:50:51;101382.25;;;9.40;58.01
31044;BME280;17710;52.520;13.352;2022-12-20T04:53:18;101379.72;;;9.35;57.82
31044;BME280;17710;52.520;13.352;2022-12-20T04:56:03;101387.91;;;9.22;58.15
31044;BME280;17710;52.520;13.352;2022-12-20T04:58:31;101389.03;;;9.10;58.38
31044;BME280;17710;52.520;13.352;2022-12-20T05:00:57;101380.03;;;9.20;58.21
31044;BME280;17710;52.520;13.352;2022-12-20T05:03:25;101385.28;;;9.22;58.20
31044;BME280;17710;52.520;13.352;2022-12-20T05:05:52;101381.47;;;9.36;58.18
31044;BME280;17710;52.520;13.352;2022-12-20T05:08:18;101388.19;;;9.08;58.47
31044;BME280;17710;52.520;13.352;2022-12-20T05:10:46;101387.16;;;9.16;58.37
31044;BME280;17710;52.520;13.352;2022-12-20T05:13:13;101376.69;;;9.12;58.69
31044;BME280;17710;52.520;13.352;2022-12-20T05:15:41;101384.84;;;9.44;58.01
31044;BME280;17710;52.520;13.352;2022-12-20T05:18:07;101388.38;;;9.43;57.98
31044;BME280;17710;52.520;13.352;2022-12-20T05:20:34;101387.50;;;9.43;58.07
31044;BME280;17710;52.520;13.352;2022-12-20T05:23:00;101383.88;;;9.47;57.97
31044;BME280;17710;52.520;13.352;2022-12-20T05:25:47;101380.81;;;9.67;57.40
31044;BME280;17710;52.520;13.352;2022-12-20T05:28:31;101361.34;;;9.72;57.19
31044;BME280;17710;52.520;13.352;2022-12-20T05:31:00;101352.97;;;9.53;57.34
31044;BME280;17710;52.520;13.352;2022-12-20T05:33:27;101345.06;;;9.52;57.37
31044;BME280;17710;52.520;13.352;2022-12-20T05:35:54;101373.16;;;9.56;57.65
31044;BME280;17710;52.520;13.352;2022-12-20T05:38:22;101372.03;;;9.66;57.03
31044;BME280;17710;52.520;13.352;2022-12-20T05:40:50;101365.16;;;9.59;57.25
31044;BME280;17710;52.520;13.352;2022-12-20T05:43:17;101353.56;;;9.66;57.26
31044;BME280;17710;52.520;13.352;2022-12-20T05:45:45;101356.13;;;9.71;56.75
31044;BME280;17710;52.520;13.352;2022-12-20T05:48:14;101352.56;;;9.72;56.78
31044;BME280;17710;52.520;13.352;2022-12-20T05:50:41;101352.78;;;9.63;57.17
31044;BME280;17710;52.520;13.352;2022-12-20T05:53:09;101356.75;;;9.80;57.13
31044;BME280;17710;52.520;13.352;2022-12-20T05:55:35;101368.47;;;9.69;57.22
31044;BME280;17710;52.520;13.352;2022-12-20T05:58:05;101365.06;;;9.64;57.28
31044;BME280;17710;52.520;13.352;2022-12-20T06:00:31;101354.88;;;9.85;57.18
31044;BME280;17710;52.520;13.352;2022-12-20T06:02:57;101352.34;;;9.81;57.18
31044;BME280;17710;52.520;13.352;2022-12-20T06:05:25;101348.09;;;9.75;57.42
31044;BME280;17710;52.520;13.352;2022-12-20T06:07:51;101347.81;;;9.87;57.55
31044;BME280;17710;52.520;13.352;2022-12-20T06:10:18;101366.88;;;10.00;57.13
31044;BME280;17710;52.520;13.352;2022-12-20T06:12:44;101373.72;;;9.70;57.65
31044;BME280;17710;52.520;13.352;2022-12-20T06:15:11;101360.00;;;9.93;57.56
31044;BME280;17710;52.520;13.352;2022-12-20T06:17:39;101368.59;;;10.03;57.11
31044;BME280;17710;52.520;13.352;2022-12-20T06:20:07;101377.47;;;9.98;57.17
31044;BME280;17710;52.520;13.352;2022-12-20T06:22:35;101378.91;;;10.12;56.99
31044;BME280;17710;52.520;13.352;2022-12-20T06:25:01;101380.97;;;9.99;57.71
31044;BME280;17710;52.520;13.352;2022-12-20T06:27:28;101383.59;;;10.00;57.69
31044;BME280;17710;52.520;13.352;2022-12-20T06:29:54;101387.66;;;10.14;57.79
31044;BME280;17710;52.520;13.352;2022-12-20T06:32:20;101382.75;;;9.98;58.20
31044;BME280;17710;52.520;13.352;2022-12-20T06:34:47;101381.84;;;9.99;58.37
31044;BME280;17710;52.520;13.352;2022-12-20T06:37:13;101372.75;;;10.11;58.53
31044;BME280;17710;52.520;13.352;2022-12-20T06:39:41;101378.91;;;10.12;58.91
31044;BME280;17710;52.520;13.352;2022-12-20T06:42:07;101374.66;;;10.06;59.23
31044;BME280;17710;52.520;13.352;2022-12-20T06:44:34;101383.13;;;10.22;59.13
31044;BME280;17710;52.520;13.352;2022-12-20T06:47:01;101384.03;;;10.21;59.21
31044;BME280;17710;52.520;13.352;2022-12-20T06:49:27;101386.59;;;10.24;59.15
31044;BME280;17710;52.520;13.352;2022-12-20T06:51:54;101387.66;;;10.17;59.15
31044;BME280;17710;52.520;13.352;2022-12-20T06:54:20;101385.34;;;10.00;60.46
31044;BME280;17710;52.520;13.352;2022-12-20T06:56:51;101391.75;;;9.90;61.04
31044;BME280;17710;52.520;13.352;2022-12-20T06:59:17;101386.72;;;10.18;60.38
31044;BME280;17710;52.520;13.352;2022-12-20T07:01:44;101382.28;;;10.20;60.58
31044;BME280;17710;52.520;13.352;2022-12-20T07:04:10;101383.97;;;10.24;60.24
31044;BME280;17710;52.520;13.352;2022-12-20T07:06:37;101383.88;;;10.27;60.60
31044;BME280;17710;52.520;13.352;2022-12-20T07:09:03;101386.91;;;10.09;60.97
31044;BME280;17710;52.520;13.352;2022-12-20T07:11:30;101396.63;;;10.07;61.21
31044;BME280;17710;52.520;13.352;2022-12-20T07:13:58;101385.94;;;10.13;61.19
31044;BME280;17710;52.520;13.352;2022-12-20T07:16:24;101394.31;;;9.93;62.18
31044;BME280;17710;52.520;13.352;2022-12-20T07:18:51;101387.25;;;10.32;61.21
31044;BME280;17710;52.520;13.352;2022-12-20T07:21:20;101398.53;;;10.38;60.86
31044;BME280;17710;52.520;13.352;2022-12-20T07:23:47;101396.44;;;10.53;60.17
31044;BME280;17710;52.520;13.352;2022-12-20T07:26:14;101404.50;;;10.48;60.51
31044;BME280;17710;52.520;13.352;2022-12-20T07:28:41;101410.06;;;10.36;61.09
31044;BME280;17710;52.520;13.352;2022-12-20T07:31:09;101412.72;;;10.36;60.93
31044;BME280;17710;52.520;13.352;2022-12-20T07:33:36;101411.66;;;10.43;61.05
31044;BME280;17710;52.520;13.352;2022-12-20T07:36:04;101415.06;;;10.48;61.23
31044;BME280;17710;52.520;13.352;2022-12-20T07:38:32;101413.50;;;10.39;61.57
31044;BME280;17710;52.520;13.352;2022-12-20T07:41:00;101420.25;;;10.51;61.30
31044;BME280;17710;52.520;13.352;2022-12-20T07:43:31;101415.25;;;10.76;60.93
31044;BME280;17710;52.520;13.352;2022-12-20T07:45:58;101423.22;;;10.74;60.66
31044;BME280;17710;52.520;13.352;2022-12-20T07:48:26;101431.50;;;10.59;61.78
31044;BME280;17710;52.520;13.352;2022-12-20T07:50:56;101426.69;;;10.41;62.16
31044;BME280;17710;52.520;13.352;2022-12-20T07:53:24;101424.47;;;10.58;61.77
31044;BME280;17710;52.520;13.352;2022-12-20T07:55:54;101427.28;;;10.52;62.64
31044;BME280;17710;52.520;13.352;2022-12-20T07:58:21;101429.19;;;10.46;62.62
31044;BME280;17710;52.520;13.352;2022-12-20T08:00:49;101429.75;;;10.58;62.58
31044;BME280;17710;52.520;13.352;2022-12-20T08:03:18;101429.00;;;10.55;62.83
31044;BME280;17710;52.520;13.352;2022-12-20T08:05:53;101419.94;;;10.63;62.71
31044;BME280;17710;52.520;13.352;2022-12-20T08:08:21;101422.03;;;10.51;63.16
31044;BME280;17710;52.520;13.352;2022-12-20T08:10:48;101419.16;;;10.60;62.76
31044;BME280;17710;52.520;13.352;2022-12-20T08:13:16;101423.72;;;10.53;62.92
31044;BME280;17710;52.520;13.352;2022-12-20T08:15:43;101421.16;;;10.50;63.31
31044;BME280;17710;52.520;13.352;2022-12-20T08:18:09;101421.06;;;10.55;63.41
31044;BME280;17710;52.520;13.352;2022-12-20T08:20:36;101423.53;;;10.62;63.25
31044;BME280;17710;52.520;13.352;2022-12-20T08:23:04;101421.97;;;10.54;63.67
31044;BME280;17710;52.520;13.352;2022-12-20T08:25:30;101412.88;;;10.64;63.57
31044;BME280;17710;52.520;13.352;2022-12-20T08:27:58;101411.81;;;10.71;63.24
31044;BME280;17710;52.520;13.352;2022-12-20T08:30:26;101418.06;;;10.68;63.13
31044;BME280;17710;52.520;13.352;2022-12-20T08:32:53;101421.53;;;10.70;63.38
31044;BME280;17710;52.520;13.352;2022-12-20T08:35:20;101406.47;;;10.38;64.85
31044;BME280;17710;52.520;13.352;2022-12-20T08:37:47;101409.03;;;10.43;64.57
31044;BME280;17710;52.520;13.352;2022-12-20T08:40:15;101392.53;;;10.32;65.30
31044;BME280;17710;52.520;13.352;2022-12-20T08:42:43;101388.22;;;10.63;64.67
31044;BME280;17710;52.520;13.352;2022-12-20T08:45:10;101405.31;;;10.84;63.52
31044;BME280;17710;52.520;13.352;2022-12-20T08:47:37;101395.91;;;10.74;63.84
31044;BME280;17710;52.520;13.352;2022-12-20T08:50:05;101396.59;;;10.81;63.93
31044;BME280;17710;52.520;13.352;2022-12-20T08:52:32;101400.13;;;10.81;64.06
31044;BME280;17710;52.520;13.352;2022-12-20T08:54:58;101394.31;;;10.67;64.87
31044;BME280;17710;52.520;13.352;2022-12-20T08:57:26;101402.59;;;10.87;63.83
31044;BME280;17710;52.520;13.352;2022-12-20T08:59:53;101395.34;;;10.61;64.91
31044;BME280;17710;52.520;13.352;2022-12-20T09:02:19;101400.31;;;10.73;64.55
31044;BME280;17710;52.520;13.352;2022-12-20T09:04:46;101400.88;;;10.86;64.28
31044;BME280;17710;52.520;13.352;2022-12-20T09:07:12;101388.91;;;10.71;64.90
31044;BME280;17710;52.520;13.352;2022-12-20T09:09:39;101395.72;;;10.82;64.42
31044;BME280;17710;52.520;13.352;2022-12-20T09:12:06;101389.53;;;10.83;64.32
31044;BME280;17710;52.520;13.352;2022-12-20T09:14:34;101391.06;;;10.90;64.50
31044;BME280;17710;52.520;13.352;2022-12-20T09:17:00;101387.09;;;11.06;63.87
31044;BME280;17710;52.520;13.352;2022-12-20T09:19:27;101386.25;;;11.05;64.01
31044;BME280;17710;52.520;13.352;2022-12-20T09:21:53;101386.41;;;10.99;64.11
31044;BME280;17710;52.520;13.352;2022-12-20T09:24:20;101375.78;;;11.01;64.23
31044;BME280;17710;52.520;13.352;2022-12-20T09:26:47;101368.91;;;11.26;63.49
31044;BME280;17710;52.520;13.352;2022-12-20T09:29:14;101370.81;;;11.21;63.97
31044;BME280;17710;52.520;13.352;2022-12-20T09:31:42;101378.63;;;11.26;63.99
31044;BME280;17710;52.520;13.352;2022-12-20T09:34:08;101374.56;;;11.14;63.79
31044;BME280;17710;52.520;13.352;2022-12-20T09:36:35;101378.56;;;11.29;63.67
31044;BME280;17710;52.520;13.352;2022-12-20T09:39:02;101368.38;;;11.44;63.36
31044;BME280;17710;52.520;13.352;2022-12-20T09:41:32;101368.19;;;11.50;63.23
31044;BME280;17710;52.520;13.352;2022-12-20T09:44:04;101369.34;;;11.42;63.58
31044;BME280;17710;52.520;13.352;2022-12-20T09:46:31;101370.72;;;11.84;62.86
31044;BME280;17710;52.520;13.352;2022-12-20T09:49:01;101364.91;;;11.72;62.83
31044;BME280;17710;52.520;13.352;2022-12-20T09:51:36;101367.50;;;11.75;62.82
31044;BME280;17710;52.520;13.352;2022-12-20T09:54:13;101368.47;;;12.00;61.76
31044;BME280;17710;52.520;13.352;2022-12-20T09:56:45;101365.03;;;11.96;61.82
31044;BME280;17710;52.520;13.352;2022-12-20T09:59:14;101377.19;;;12.04;61.79
31044;BME280;17710;52.520;13.352;2022-12-20T10:01:44;101374.66;;;12.01;61.05
31044;BME280;17710;52.520;13.352;2022-12-20T10:04:17;101372.31;;;11.90;61.51
31044;BME280;17710;52.520;13.352;2022-12-20T10:06:55;101383.59;;;11.96;61.55
31044;BME280;17710;52.520;13.352;2022-12-20T10:09:41;101379.41;;;12.17;60.69
31044;BME280;17710;52.520;13.352;2022-12-20T10:12:18;101381.84;;;11.95;61.34
31044;BME280;17710;52.520;13.352;2022-12-20T10:15:00;101374.72;;;11.97;61.19
31044;BME280;17710;52.520;13.352;2022-12-20T10:17:38;101370.03;;;12.07;60.76
31044;BME280;17710;52.520;13.352;2022-12-20T10:20:18;101377.69;;;12.15;61.00
31044;BME280;17710;52.520;13.352;2022-12-20T10:22:53;101373.00;;;12.24;60.54
31044;BME280;17710;52.520;13.352;2022-12-20T10:25:23;101360.41;;;12.31;60.30
31044;BME280;17710;52.520;13.352;2022-12-20T10:27:55;101358.88;;;12.50;59.82
31044;BME280;17710;52.520;13.352;2022-12-20T10:30:25;101350.97;;;12.49;60.01
31044;BME280;17710;52.520;13.352;2022-12-20T10:32:56;101349.84;;;12.29;60.32
31044;BME280;17710;52.520;13.352;2022-12-20T10:35:28;101334.16;;;12.23;60.30
31044;BME280;17710;52.520;13.352;2022-12-20T10:37:58;101329.94;;;12.18;60.23
31044;BME280;17710;52.520;13.352;2022-12-20T10:40:27;101322.41;;;12.32;60.36
31044;BME280;17710;52.520;13.352;2022-12-20T10:42:54;101313.25;;;12.41;59.95
31044;BME280;17710;52.520;13.352;2022-12-20T10:45:31;101295.22;;;12.52;60.08
31044;BME280;17710;52.520;13.352;2022-12-20T10:47:59;101301.59;;;12.46;60.26
31044;BME280;17710;52.520;13.352;2022-12-20T10:50:28;101305.13;;;12.71;59.68
31044;BME280;17710;52.520;13.352;2022-12-20T10:53:18;101293.75;;;12.93;59.17
31044;BME280;17710;52.520;13.352;2022-12-20T10:55:45;101300.34;;;13.06;58.53
31044;BME280;17710;52.520;13.352;2022-12-20T10:58:14;101295.53;;;12.92;58.35
31044;BME280;17710;52.520;13.352;2022-12-20T11:00:43;101279.19;;;12.80;58.64
31044;BME280;17710;52.520;13.352;2022-12-20T11:03:13;101271.19;;;13.04;58.35
31044;BME280;17710;52.520;13.352;2022-12-20T11:05:54;101268.78;;;12.98;58.51
31044;BME280;17710;52.520;13.352;2022-12-20T11:08:21;101270.03;;;12.88;58.09
31044;BME280;17710;52.520;13.352;2022-12-20T11:10:50;101254.88;;;12.92;58.47
31044;BME280;17710;52.520;13.352;2022-12-20T11:13:34;101263.09;;;12.84;58.38
31044;BME280;17710;52.520;13.352;2022-12-20T11:16:01;101249.25;;;12.76;58.65
31044;BME280;17710;52.520;13.352;2022-12-20T11:18:37;101242.44;;;12.69;58.92
31044;BME280;17710;52.520;13.352;2022-12-20T11:21:18;101235.13;;;12.52;58.90
31044;BME280;17710;52.520;13.352;2022-12-20T11:23:51;101251.72;;;12.57;58.59
31044;BME280;17710;52.520;13.352;2022-12-20T11:26:33;101241.13;;;12.32;59.44
31044;BME280;17710;52.520;13.352;2022-12-20T11:29:12;101239.03;;;12.41;59.21
31044;BME280;17710;52.520;13.352;2022-12-20T11:31:49;101243.44;;;12.66;59.05
31044;BME280;17710;52.520;13.352;2022-12-20T11:34:29;101231.47;;;12.55;58.88
31044;BME280;17710;52.520;13.352;2022-12-20T11:37:13;101237.03;;;12.72;57.90
31044;BME280;17710;52.520;13.352;2022-12-20T11:40:03;101231.19;;;12.62;58.19
31044;BME280;17710;52.520;13.352;2022-12-20T11:42:42;101230.66;;;12.77;58.09
31044;BME280;17710;52.520;13.352;2022-12-20T11:45:21;101226.44;;;12.72;57.98
31044;BME280;17710;52.520;13.352;2022-12-20T11:48:15;101223.78;;;12.72;57.88
31044;BME280;17710;52.520;13.352;2022-12-20T11:50:58;101217.56;;;12.73;57.82
31044;BME280;17710;52.520;13.352;2022-12-20T11:53:32;101203.44;;;12.96;56.88
31044;BME280;17710;52.520;13.352;2022-12-20T11:56:04;101210.28;;;13.01;57.07
31044;BME280;17710;52.520;13.352;2022-12-20T11:58:42;101212.16;;;12.99;57.13
31044;BME280;17710;52.520;13.352;2022-12-20T12:01:13;101221.66;;;13.05;56.69
31044;BME280;17710;52.520;13.352;2022-12-20T12:03:47;101214.00;;;12.97;56.74
31044;BME280;17710;52.520;13.352;2022-12-20T12:06:19;101207.53;;;13.04;56.93
31044;BME280;17710;52.520;13.352;2022-12-20T12:08:49;101217.91;;;13.10;56.85
31044;BME280;17710;52.520;13.352;2022-12-20T12:11:21;101212.88;;;13.26;56.38
31044;BME280;17710;52.520;13.352;2022-12-20T12:13:49;101213.50;;;13.09;56.68
31044;BME280;17710;52.520;13.352;2022-12-20T12:16:18;101215.31;;;13.32;56.26
31044;BME280;17710;52.520;13.352;2022-12-20T12:18:47;101203.88;;;13.07;56.42
31044;BME280;17710;52.520;13.352;2022-12-20T12:21:18;101199.22;;;12.90;57.54
31044;BME280;17710;52.520;13.352;2022-12-20T12:23:59;101187.91;;;13.08;57.09
31044;BME280;17710;52.520;13.352;2022-12-20T12:26:28;101183.19;;;12.93;57.19
31044;BME280;17710;52.520;13.352;2022-12-20T12:28:56;101181.69;;;13.09;56.77
31044;BME280;17710;52.520;13.352;2022-12-20T12:31:28;101179.13;;;13.06;57.07
31044;BME280;17710;52.520;13.352;2022-12-20T12:34:15;101185.81;;;12.93;57.68
31044;BME280;17710;52.520;13.352;2022-12-20T12:37:11;101176.94;;;13.19;56.60
31044;BME280;17710;52.520;13.352;2022-12-20T12:40:03;101181.78;;;13.06;56.96
31044;BME280;17710;52.520;13.352;2022-12-20T12:42:59;101175.81;;;12.78;58.01
31044;BME280;17710;52.520;13.352;2022-12-20T12:45:33;101167.19;;;12.73;58.01
31044;BME280;17710;52.520;13.352;2022-12-20T12:48:11;101167.22;;;12.95;57.84
31044;BME280;17710;52.520;13.352;2022-12-20T12:50:45;101157.88;;;12.85;57.71
31044;BME280;17710;52.520;13.352;2022-12-20T12:53:15;101153.16;;;12.93;57.58
31044;BME280;17710;52.520;13.352;2022-12-20T12:55:44;101145.06;;;12.96;57.44
31044;BME280;17710;52.520;13.352;2022-12-20T12:58:13;101148.38;;;12.79;57.68
31044;BME280;17710;52.520;13.352;2022-12-20T13:00:50;101150.81;;;12.85;57.51